Time;durP1;ratioP1;P1;durP2;ratioP2;P2;SDS_P1;SDS_P2;PMS_P1;PMS_P2;Temp;Humidity;BMP_temperature;BMP_pressure;BME280_temperature;BME280_humidity;BME280_pressure;Samples;Min_cycle;Max_cycle;Signal;HPM_P1;HPM_P2
2021/08/03 00:01:08;;;;;;;0.90;0.43;;;15.30;99.90;;;;;;5089363;28;20232;-74
2021/08/03 00:03:38;;;;;;;0.50;0.50;;;15.30;99.90;;;;;;5089241;28;20156;-75
2021/08/03 00:06:16;;;;;;;0.38;0.38;;;15.30;99.90;;;;;;5089176;28;20212;-75
2021/08/03 00:08:51;;;;;;;0.35;0.35;;;15.30;99.90;;;;;;5089173;28;20167;-74
2021/08/03 00:11:18;;;;;;;0.10;0.10;;;15.40;99.90;;;;;;5087905;28;20175;-75
2021/08/03 00:13:44;;;;;;;0.05;0.05;;;15.40;99.90;;;;;;5089252;28;20176;-75
2021/08/03 00:16:11;;;;;;;0.38;0.38;;;15.40;99.90;;;;;;5088752;28;20163;-75
2021/08/03 00:18:41;;;;;;;0.00;0.00;;;15.40;99.90;;;;;;5089172;28;20613;-75
2021/08/03 00:21:09;;;;;;;0.10;0.10;;;15.40;99.90;;;;;;5089040;28;20190;-74
2021/08/03 00:23:42;;;;;;;0.20;0.20;;;15.20;99.90;;;;;;5088662;28;20171;-74
2021/08/03 00:26:12;;;;;;;0.50;0.50;;;15.10;99.90;;;;;;5087688;28;20255;-75
2021/08/03 00:28:38;;;;;;;0.13;0.13;;;15.30;99.90;;;;;;5089098;28;20152;-75
2021/08/03 00:31:05;;;;;;;0.40;0.30;;;15.30;99.90;;;;;;5085051;28;20180;-74
2021/08/03 00:33:31;;;;;;;0.47;0.38;;;15.30;99.90;;;;;;5087257;28;20176;-75
2021/08/03 00:35:57;;;;;;;0.45;0.45;;;15.50;99.90;;;;;;5088850;28;20163;-75
2021/08/03 00:38:23;;;;;;;0.00;0.00;;;15.50;99.90;;;;;;5090174;28;20160;-75
2021/08/03 00:41:02;;;;;;;0.10;0.10;;;15.40;99.90;;;;;;5091517;28;20171;-75
2021/08/03 00:43:28;;;;;;;0.10;0.10;;;15.30;99.90;;;;;;5091386;28;20168;-74
2021/08/03 00:45:54;;;;;;;0.13;0.13;;;15.30;99.90;;;;;;5091456;28;20247;-74
2021/08/03 00:48:20;;;;;;;0.20;0.20;;;15.30;99.90;;;;;;5092379;28;20196;-73
2021/08/03 00:50:47;;;;;;;0.05;0.05;;;15.30;99.90;;;;;;5091028;28;20231;-75
2021/08/03 00:53:14;;;;;;;0.45;0.45;;;15.40;99.90;;;;;;5092146;28;20247;-74
2021/08/03 00:55:41;;;;;;;0.30;0.30;;;15.50;99.90;;;;;;5090882;28;20178;-73
2021/08/03 00:58:10;;;;;;;0.43;0.35;;;15.50;99.90;;;;;;5090573;28;20195;-73
2021/08/03 01:00:36;;;;;;;0.77;0.77;;;15.40;99.90;;;;;;5091186;28;20168;-73
2021/08/03 01:03:02;;;;;;;0.30;0.30;;;15.40;99.90;;;;;;5092326;28;20562;-74
2021/08/03 01:05:37;;;;;;;0.10;0.10;;;15.50;99.90;;;;;;5092329;28;20160;-73
2021/08/03 01:08:06;;;;;;;0.20;0.20;;;15.50;99.90;;;;;;5092249;28;20215;-74
2021/08/03 01:11:04;;;;;;;2.65;1.33;;;15.60;99.90;;;;;;5090906;28;20219;-74
2021/08/03 01:13:55;;;;;;;0.20;0.20;;;15.60;99.90;;;;;;5069662;28;20191;-74
2021/08/03 01:16:50;;;;;;;0.20;0.20;;;15.50;99.90;;;;;;5052438;28;20200;-75
2021/08/03 01:19:26;;;;;;;0.25;0.25;;;15.50;99.90;;;;;;5069924;28;20184;-74
2021/08/03 01:22:24;;;;;;;0.20;0.20;;;15.50;99.90;;;;;;5069659;28;20183;-74
2021/08/03 01:25:15;;;;;;;0.20;0.20;;;15.50;99.90;;;;;;5036556;28;20188;-73
2021/08/03 01:28:11;;;;;;;0.32;0.30;;;15.50;99.90;;;;;;5069834;28;20193;-75
2021/08/03 01:30:39;;;;;;;0.20;0.20;;;15.50;99.90;;;;;;5069537;28;20212;-74
2021/08/03 01:33:07;;;;;;;0.10;0.10;;;15.50;99.90;;;;;;5069715;28;20236;-74
2021/08/03 01:35:34;;;;;;;0.15;0.13;;;15.40;99.90;;;;;;5069645;28;20172;-73
2021/08/03 01:38:01;;;;;;;0.10;0.10;;;15.40;99.90;;;;;;5069399;28;20200;-73
2021/08/03 01:40:29;;;;;;;0.10;0.10;;;15.40;99.90;;;;;;5069613;28;20177;-74
2021/08/03 01:42:56;;;;;;;0.10;0.10;;;15.40;99.90;;;;;;5069572;28;20161;-74
2021/08/03 01:45:23;;;;;;;0.45;0.45;;;15.40;99.90;;;;;;5069298;28;20177;-75
2021/08/03 01:47:49;;;;;;;0.90;0.88;;;15.30;99.90;;;;;;5058069;28;20211;-72
2021/08/03 01:50:17;;;;;;;0.25;0.13;;;15.10;99.90;;;;;;5059284;28;20223;-75
2021/08/03 01:52:44;;;;;;;0.10;0.10;;;15.10;99.90;;;;;;5071494;28;20168;-74
2021/08/03 01:55:11;;;;;;;0.35;0.32;;;15.10;99.90;;;;;;5078133;28;20179;-74
2021/08/03 01:57:41;;;;;;;0.10;0.10;;;15.10;99.90;;;;;;5089641;28;20279;-74
2021/08/03 02:00:08;;;;;;;0.20;0.20;;;15.20;99.90;;;;;;5091234;28;20156;-74
2021/08/03 02:02:34;;;;;;;0.10;0.10;;;15.10;99.90;;;;;;5089957;28;20224;-73
2021/08/03 02:05:00;;;;;;;0.47;0.30;;;15.10;99.90;;;;;;5091233;28;20163;-74
2021/08/03 02:07:28;;;;;;;0.10;0.10;;;15.20;99.90;;;;;;5089933;28;20203;-74
2021/08/03 02:09:55;;;;;;;1.98;0.73;;;15.20;99.90;;;;;;5091068;28;20527;-74
2021/08/03 02:12:21;;;;;;;0.10;0.10;;;15.30;99.90;;;;;;5090797;28;20585;-74
2021/08/03 02:14:47;;;;;;;4.10;0.77;;;15.20;99.90;;;;;;5089644;28;20248;-74
2021/08/03 02:17:18;;;;;;;1.65;0.88;;;15.20;99.90;;;;;;5090898;28;20191;-74
2021/08/03 02:19:44;;;;;;;0.50;0.30;;;15.10;99.90;;;;;;5089629;28;20172;-74
2021/08/03 02:22:11;;;;;;;0.13;0.13;;;15.10;99.90;;;;;;5089736;28;20573;-73
2021/08/03 02:24:39;;;;;;;0.43;0.43;;;15.10;99.90;;;;;;5090775;28;20164;-75
2021/08/03 02:27:06;;;;;;;0.20;0.20;;;15.10;99.90;;;;;;5088779;28;20200;-74
2021/08/03 02:29:34;;;;;;;0.20;0.20;;;15.10;99.90;;;;;;5089172;28;20405;-73
2021/08/03 02:32:14;;;;;;;0.38;0.38;;;15.10;99.90;;;;;;5090724;28;20152;-73
2021/08/03 02:34:46;;;;;;;0.20;0.20;;;15.10;99.90;;;;;;5088821;28;20690;-74
2021/08/03 02:37:17;;;;;;;0.50;0.50;;;15.10;99.90;;;;;;5090404;28;20529;-74
2021/08/03 02:39:46;;;;;;;0.55;0.55;;;15.10;99.90;;;;;;5090439;28;20228;-74
2021/08/03 02:42:14;;;;;;;0.00;0.00;;;15.20;99.90;;;;;;5089049;28;20168;-74
2021/08/03 02:44:42;;;;;;;1.35;1.10;;;15.10;99.90;;;;;;5090278;28;20160;-74
2021/08/03 02:47:36;;;;;;;0.13;0.13;;;15.10;99.90;;;;;;5088886;28;20218;-75
2021/08/03 02:50:05;;;;;;;6.00;2.08;;;15.10;99.90;;;;;;5089688;28;20253;-74
2021/08/03 02:52:34;;;;;;;0.65;0.65;;;15.10;99.90;;;;;;5090294;28;20152;-73
2021/08/03 02:55:24;;;;;;;0.30;0.30;;;15.10;99.90;;;;;;5089911;28;20179;-73
2021/08/03 02:58:05;;;;;;;0.43;0.43;;;15.10;99.90;;;;;;5086032;28;20226;-74
2021/08/03 03:00:38;;;;;;;0.57;0.57;;;15.20;99.90;;;;;;5089933;28;20156;-73
2021/08/03 03:03:09;;;;;;;0.52;0.52;;;15.00;99.90;;;;;;5087788;28;20168;-74
2021/08/03 03:05:38;;;;;;;0.17;0.17;;;15.00;99.90;;;;;;5090033;28;20190;-74
2021/08/03 03:08:15;;;;;;;0.20;0.20;;;15.10;99.90;;;;;;5088519;28;20195;-74
2021/08/03 03:10:49;;;;;;;0.75;0.75;;;15.10;99.90;;;;;;5088415;28;20195;-73
2021/08/03 03:13:23;;;;;;;0.45;0.43;;;15.10;99.90;;;;;;5089758;28;20159;-74
2021/08/03 03:15:50;;;;;;;0.40;0.40;;;15.20;99.90;;;;;;5089840;28;20170;-74
2021/08/03 03:18:16;;;;;;;0.98;0.98;;;15.10;99.90;;;;;;5089617;28;20191;-74
2021/08/03 03:20:43;;;;;;;0.57;0.52;;;15.10;99.90;;;;;;5088337;28;20194;-74
2021/08/03 03:23:09;;;;;;;0.60;0.57;;;15.10;99.90;;;;;;5089747;28;20152;-73
2021/08/03 03:25:36;;;;;;;0.30;0.30;;;15.20;99.90;;;;;;5089737;28;20168;-75
2021/08/03 03:28:05;;;;;;;1.08;0.98;;;15.00;99.90;;;;;;5089434;28;20188;-73
2021/08/03 03:30:32;;;;;;;1.17;0.93;;;14.90;99.90;;;;;;5089079;28;20204;-74
2021/08/03 03:33:02;;;;;;;0.80;0.75;;;14.90;99.90;;;;;;5089490;28;20182;-74
2021/08/03 03:35:31;;;;;;;1.02;0.85;;;14.90;99.90;;;;;;5089644;28;20152;-74
2021/08/03 03:37:57;;;;;;;0.28;0.28;;;15.00;99.90;;;;;;5089108;28;20191;-74
2021/08/03 03:40:24;;;;;;;0.17;0.17;;;15.10;99.90;;;;;;5088072;28;20171;-74
2021/08/03 03:42:54;;;;;;;0.38;0.38;;;15.00;99.90;;;;;;5088003;28;20168;-74
2021/08/03 03:45:21;;;;;;;0.32;0.32;;;14.90;99.90;;;;;;5086858;28;20168;-73
2021/08/03 03:48:04;;;;;;;0.90;0.82;;;14.80;99.90;;;;;;5087766;28;20168;-74
2021/08/03 03:50:55;;;;;;;0.65;0.65;;;14.70;99.90;;;;;;5089043;28;20246;-74
2021/08/03 03:53:24;;;;;;;0.13;0.13;;;14.80;99.90;;;;;;5089077;28;20325;-74
2021/08/03 03:55:59;;;;;;;0.45;0.45;;;14.90;99.90;;;;;;5082059;28;20184;-74
2021/08/03 03:58:27;;;;;;;0.85;0.85;;;15.00;99.90;;;;;;5087469;28;20176;-74
2021/08/03 04:00:54;;;;;;;1.35;1.35;;;15.00;99.90;;;;;;5087781;28;20200;-74
2021/08/03 04:03:23;;;;;;;1.45;1.35;;;15.10;99.90;;;;;;5089140;28;20196;-74
2021/08/03 04:05:50;;;;;;;2.28;2.03;;;15.20;99.90;;;;;;5089156;28;20152;-75
2021/08/03 04:08:15;;;;;;;0.40;0.40;;;15.40;99.90;;;;;;5088983;28;20171;-74
2021/08/03 04:10:43;;;;;;;1.08;1.08;;;15.20;99.90;;;;;;5087566;28;20192;-74
2021/08/03 04:13:10;;;;;;;2.08;0.70;;;15.20;99.90;;;;;;5089862;28;20179;-74
2021/08/03 04:15:37;;;;;;;1.92;1.58;;;15.30;99.90;;;;;;5092006;28;20171;-75
2021/08/03 04:18:03;;;;;;;1.27;1.10;;;15.20;99.90;;;;;;5093130;28;20166;-74
2021/08/03 04:20:30;;;;;;;2.90;0.85;;;15.10;99.90;;;;;;5092826;28;20168;-74
2021/08/03 04:22:57;;;;;;;1.77;1.60;;;15.10;99.90;;;;;;5092836;28;20196;-74
2021/08/03 04:25:23;;;;;;;0.55;0.40;;;15.10;99.90;;;;;;5093188;28;20219;-73
2021/08/03 04:27:50;;;;;;;2.47;2.28;;;15.30;99.90;;;;;;5091625;28;20221;-73
2021/08/03 04:30:17;;;;;;;0.95;0.38;;;15.40;99.90;;;;;;5091682;28;20200;-73
2021/08/03 04:32:43;;;;;;;1.30;1.30;;;15.50;99.90;;;;;;5092835;28;20188;-72
2021/08/03 04:35:10;;;;;;;1.75;0.77;;;15.60;99.90;;;;;;5092898;28;20156;-72
2021/08/03 04:37:42;;;;;;;0.60;0.60;;;15.50;99.90;;;;;;5091554;28;20176;-72
2021/08/03 04:40:09;;;;;;;0.20;0.20;;;15.40;99.90;;;;;;5092774;28;20187;-72
2021/08/03 04:42:35;;;;;;;2.47;2.28;;;15.50;99.90;;;;;;5091260;28;20222;-72
2021/08/03 04:45:03;;;;;;;1.13;1.00;;;15.70;99.90;;;;;;5092420;28;20239;-73
2021/08/03 04:47:29;;;;;;;1.10;1.10;;;15.60;99.90;;;;;;5071043;28;20161;-72
2021/08/03 04:49:55;;;;;;;0.60;0.43;;;15.40;99.90;;;;;;5072051;28;20234;-73
2021/08/03 04:52:21;;;;;;;0.73;0.73;;;15.30;99.90;;;;;;5072228;28;20663;-72
2021/08/03 04:54:47;;;;;;;1.10;1.10;;;15.50;99.90;;;;;;5077572;28;20160;-72
2021/08/03 04:57:13;;;;;;;0.95;0.82;;;15.70;99.90;;;;;;5077272;28;20180;-72
2021/08/03 04:59:38;;;;;;;2.58;1.88;;;15.60;99.90;;;;;;5072294;28;20183;-72
2021/08/03 05:02:04;;;;;;;0.85;0.77;;;15.60;99.90;;;;;;5070876;28;20238;-72
2021/08/03 05:04:34;;;;;;;0.70;0.70;;;15.60;99.90;;;;;;5072247;28;20168;-72
2021/08/03 05:07:01;;;;;;;0.43;0.43;;;15.90;99.90;;;;;;5072174;28;20494;-72
2021/08/03 05:09:27;;;;;;;0.95;0.95;;;16.10;99.90;;;;;;5072045;28;20184;-72
2021/08/03 05:11:53;;;;;;;0.63;0.63;;;16.30;99.90;;;;;;5084384;28;20203;-72
2021/08/03 05:14:19;;;;;;;1.98;1.35;;;16.50;99.90;;;;;;5092002;28;20167;-72
2021/08/03 05:16:45;;;;;;;1.90;1.65;;;16.50;99.90;;;;;;5092051;28;20160;-72
2021/08/03 05:19:10;;;;;;;0.65;0.63;;;16.70;99.90;;;;;;5092080;28;20205;-72
2021/08/03 05:21:36;;;;;;;0.30;0.30;;;16.90;99.90;;;;;;5091767;28;20199;-72
2021/08/03 05:24:03;;;;;;;1.48;1.38;;;17.00;99.90;;;;;;5091654;28;20168;-72
2021/08/03 05:26:29;;;;;;;1.70;1.60;;;17.80;99.90;;;;;;5091025;28;20160;-72
2021/08/03 05:28:55;;;;;;;1.35;1.25;;;18.20;99.90;;;;;;5091770;28;20161;-72
2021/08/03 05:31:21;;;;;;;1.98;1.88;;;18.30;99.90;;;;;;5090108;28;20202;-72
2021/08/03 05:33:47;;;;;;;1.45;0.73;;;17.90;99.90;;;;;;5090344;28;20168;-72
2021/08/03 05:36:14;;;;;;;1.88;1.00;;;17.90;99.90;;;;;;5089510;28;20175;-72
2021/08/03 05:38:40;;;;;;;0.85;0.85;;;18.30;99.90;;;;;;5089940;28;20163;-73
2021/08/03 05:41:05;;;;;;;1.67;1.58;;;19.00;99.90;;;;;;5088012;28;20215;-73
2021/08/03 05:43:31;;;;;;;0.40;0.40;;;20.20;99.90;;;;;;5087931;28;20195;-72
2021/08/03 05:45:57;;;;;;;6.35;1.02;;;20.80;99.90;;;;;;5092093;28;20206;-73
2021/08/03 05:48:23;;;;;;;1.88;1.73;;;21.30;99.90;;;;;;5088610;28;20557;-72
2021/08/03 05:50:49;;;;;;;0.80;0.45;;;21.40;99.90;;;;;;5089504;28;20225;-73
2021/08/03 05:53:15;;;;;;;2.15;1.92;;;20.20;99.90;;;;;;5091561;28;20209;-73
2021/08/03 05:55:41;;;;;;;2.25;2.05;;;20.00;99.90;;;;;;5091750;28;20225;-72
2021/08/03 05:58:07;;;;;;;0.63;0.63;;;20.00;99.90;;;;;;5095068;28;20644;-73
2021/08/03 06:00:33;;;;;;;0.45;0.45;;;20.20;99.90;;;;;;5081336;28;20199;-72
2021/08/03 06:02:59;;;;;;;1.00;0.88;;;20.20;99.90;;;;;;5090605;28;20179;-72
2021/08/03 06:05:30;;;;;;;0.70;0.70;;;20.90;99.90;;;;;;5098463;28;20195;-72
2021/08/03 06:07:59;;;;;;;1.13;1.02;;;21.50;99.90;;;;;;5089698;28;20195;-72
2021/08/03 06:10:27;;;;;;;5.40;1.08;;;20.70;99.90;;;;;;5090263;28;20218;-72
2021/08/03 06:12:56;;;;;;;1.13;1.05;;;19.60;99.90;;;;;;5088039;28;20194;-72
2021/08/03 06:15:22;;;;;;;0.65;0.65;;;19.40;99.90;;;;;;5092603;28;20196;-72
2021/08/03 06:17:57;;;;;;;1.50;1.42;;;20.20;99.90;;;;;;5088452;28;20194;-72
2021/08/03 06:20:23;;;;;;;0.30;0.30;;;20.90;99.90;;;;;;5089059;28;20199;-72
2021/08/03 06:22:51;;;;;;;0.80;0.80;;;21.90;99.90;;;;;;5090186;28;20186;-72
2021/08/03 06:25:16;;;;;;;0.75;0.75;;;21.60;99.90;;;;;;5082115;28;20220;-72
2021/08/03 06:27:43;;;;;;;0.70;0.70;;;22.30;99.90;;;;;;5087596;28;20739;-72
2021/08/03 06:30:10;;;;;;;0.25;0.25;;;22.70;99.90;;;;;;5084687;28;20225;-72
2021/08/03 06:32:39;;;;;;;0.98;0.98;;;23.00;99.90;;;;;;5087650;28;20194;-71
2021/08/03 06:35:08;;;;;;;0.77;0.77;;;22.70;99.90;;;;;;5088646;28;20170;-72
2021/08/03 06:37:34;;;;;;;1.17;0.63;;;21.50;99.90;;;;;;5085416;28;20522;-72
2021/08/03 06:40:00;;;;;;;1.40;1.30;;;21.50;99.90;;;;;;5089251;28;20195;-71
2021/08/03 06:42:31;;;;;;;1.02;0.93;;;22.00;99.90;;;;;;5093589;28;20163;-72
2021/08/03 06:45:06;;;;;;;0.40;0.40;;;21.90;99.90;;;;;;5095568;28;20166;-72
2021/08/03 06:47:55;;;;;;;0.82;0.82;;;22.50;99.90;;;;;;5095016;28;20166;-72
2021/08/03 06:50:25;;;;;;;0.68;0.68;;;21.60;99.90;;;;;;5089352;28;20214;-72
2021/08/03 06:52:52;;;;;;;0.93;0.57;;;23.10;99.90;;;;;;5090728;28;20167;-72
2021/08/03 06:55:26;;;;;;;0.47;0.47;;;22.90;99.90;;;;;;5091446;28;20187;-73
2021/08/03 06:57:57;;;;;;;1.83;0.93;;;22.80;99.90;;;;;;5081037;28;20217;-72
2021/08/03 07:00:24;;;;;;;1.48;1.15;;;23.10;99.90;;;;;;5087792;28;20194;-72
2021/08/03 07:02:52;;;;;;;0.77;0.77;;;23.20;99.90;;;;;;5080763;28;20180;-72
2021/08/03 07:05:25;;;;;;;0.70;0.45;;;24.00;99.90;;;;;;5092963;28;20179;-75
2021/08/03 07:07:59;;;;;;;1.42;1.33;;;24.00;99.90;;;;;;5087452;28;20191;-76
2021/08/03 07:10:26;;;;;;;1.20;0.75;;;24.80;99.90;;;;;;5095561;28;20693;-75
2021/08/03 07:12:56;;;;;;;1.02;0.93;;;24.50;99.90;;;;;;5089376;28;20207;-74
2021/08/03 07:15:27;;;;;;;0.98;0.65;;;24.60;99.90;;;;;;5089037;28;20242;-74
2021/08/03 07:17:54;;;;;;;1.77;0.80;;;24.20;99.90;;;;;;5088475;28;20207;-75
2021/08/03 07:20:22;;;;;;;1.65;0.60;;;23.60;99.90;;;;;;5088479;28;20187;-75
2021/08/03 07:22:49;;;;;;;0.85;0.50;;;23.60;99.90;;;;;;5087257;28;20222;-75
2021/08/03 07:25:16;;;;;;;3.42;1.42;;;23.80;99.90;;;;;;5088948;28;20183;-75
2021/08/03 07:27:42;;;;;;;3.17;1.83;;;24.50;99.90;;;;;;5088817;28;20589;-74
2021/08/03 07:30:10;;;;;;;0.57;0.57;;;24.40;99.90;;;;;;5087020;28;20221;-75
2021/08/03 07:32:37;;;;;;;1.15;1.15;;;24.80;99.90;;;;;;5085530;28;20184;-76
2021/08/03 07:35:05;;;;;;;0.88;0.88;;;23.80;99.90;;;;;;5088321;28;20202;-74
2021/08/03 07:37:32;;;;;;;1.10;1.10;;;23.70;99.90;;;;;;5088787;28;20160;-74
2021/08/03 07:39:58;;;;;;;1.20;0.93;;;23.20;99.90;;;;;;5087734;28;20167;-75
2021/08/03 07:42:25;;;;;;;5.28;1.48;;;22.80;99.90;;;;;;5086847;28;20167;-74
2021/08/03 07:44:51;;;;;;;2.40;1.15;;;23.00;99.90;;;;;;5087646;28;20168;-73
2021/08/03 07:47:17;;;;;;;1.40;1.25;;;23.50;99.90;;;;;;5087070;28;20532;-74
2021/08/03 07:49:43;;;;;;;0.75;0.75;;;23.70;99.90;;;;;;5086623;28;20269;-74
2021/08/03 07:52:09;;;;;;;0.35;0.35;;;24.00;99.90;;;;;;5087260;28;20175;-74
2021/08/03 07:54:35;;;;;;;0.52;0.52;;;23.80;99.90;;;;;;5087190;28;20259;-75
2021/08/03 07:57:01;;;;;;;1.05;0.95;;;24.10;99.90;;;;;;5087049;28;20195;-74
2021/08/03 07:59:27;;;;;;;1.20;1.20;;;24.90;99.90;;;;;;5087357;28;20174;-73
2021/08/03 08:01:52;;;;;;;2.20;0.85;;;24.70;99.90;;;;;;5089220;28;20163;-74
2021/08/03 08:04:18;;;;;;;2.70;0.93;;;24.60;99.90;;;;;;5088972;28;20197;-74
2021/08/03 08:06:44;;;;;;;1.58;0.45;;;24.20;99.90;;;;;;5089042;28;20222;-73
2021/08/03 08:09:10;;;;;;;1.00;1.00;;;23.50;99.90;;;;;;5088729;28;20651;-74
2021/08/03 08:11:36;;;;;;;0.52;0.52;;;24.70;99.90;;;;;;5087718;28;20187;-75
2021/08/03 08:14:02;;;;;;;0.45;0.45;;;24.60;99.90;;;;;;5087367;28;20244;-75
2021/08/03 08:16:28;;;;;;;0.70;0.70;;;24.30;99.90;;;;;;5088998;28;20144;-75
2021/08/03 08:18:53;;;;;;;0.38;0.38;;;24.50;99.90;;;;;;5088618;28;20644;-73
2021/08/03 08:21:19;;;;;;;2.95;1.15;;;24.30;99.90;;;;;;5091006;28;20640;-73
2021/08/03 08:23:45;;;;;;;0.30;0.30;;;24.20;99.90;;;;;;5086822;28;20198;-73
2021/08/03 08:26:11;;;;;;;0.32;0.32;;;24.40;99.90;;;;;;5088184;28;20156;-73
2021/08/03 08:28:37;;;;;;;0.63;0.63;;;24.30;99.90;;;;;;5088282;28;20194;-74
2021/08/03 08:31:03;;;;;;;0.20;0.20;;;24.30;99.90;;;;;;5087678;28;20195;-74
2021/08/03 08:33:29;;;;;;;0.20;0.20;;;23.80;99.90;;;;;;5089272;28;20632;-73
2021/08/03 08:35:55;;;;;;;0.65;0.45;;;23.30;99.90;;;;;;5097461;28;20191;-72
2021/08/03 08:38:21;;;;;;;0.45;0.32;;;23.90;99.90;;;;;;5086982;28;20163;-72
2021/08/03 08:40:47;;;;;;;0.40;0.40;;;23.60;99.90;;;;;;5086584;28;20201;-73
2021/08/03 08:43:16;;;;;;;3.70;0.88;;;23.60;99.90;;;;;;5087962;28;20590;-74
2021/08/03 08:45:46;;;;;;;0.75;0.75;;;24.60;99.90;;;;;;5099490;28;20162;-73
2021/08/03 08:48:13;;;;;;;0.63;0.60;;;25.50;99.90;;;;;;5107094;28;20182;-73
2021/08/03 08:50:40;;;;;;;0.40;0.40;;;25.70;99.90;;;;;;5095049;28;20219;-73
2021/08/03 08:53:07;;;;;;;0.63;0.63;;;25.30;99.90;;;;;;5088386;28;20671;-73
2021/08/03 08:55:33;;;;;;;0.10;0.10;;;25.30;99.90;;;;;;5088568;28;20175;-73
2021/08/03 08:57:59;;;;;;;0.80;0.65;;;24.60;99.90;;;;;;5083438;28;20167;-74
2021/08/03 09:00:26;;;;;;;0.63;0.63;;;24.70;99.90;;;;;;5089982;28;20189;-73
2021/08/03 09:02:53;;;;;;;0.20;0.20;;;26.00;99.90;;;;;;5106907;28;20219;-74
2021/08/03 09:05:45;;;;;;;0.40;0.40;;;25.10;99.90;;;;;;5100999;28;20195;-74
2021/08/03 09:08:12;;;;;;;0.22;0.22;;;25.30;99.90;;;;;;5090920;28;20203;-74
2021/08/03 09:10:45;;;;;;;0.25;0.25;;;25.40;99.90;;;;;;5092150;28;20179;-74
2021/08/03 09:13:16;;;;;;;0.30;0.30;;;25.40;99.90;;;;;;5091736;28;20251;-73
2021/08/03 09:15:56;;;;;;;0.40;0.40;;;25.60;99.90;;;;;;5101745;28;20506;-73
2021/08/03 09:18:49;;;;;;;0.40;0.40;;;25.70;99.90;;;;;;5071831;28;20176;-74
2021/08/03 09:21:21;;;;;;;1.25;0.77;;;25.50;99.90;;;;;;5081239;28;20190;-74
2021/08/03 09:23:58;;;;;;;0.40;0.40;;;25.40;99.90;;;;;;5091715;28;20668;-74
2021/08/03 09:26:49;;;;;;;0.30;0.30;;;25.50;99.90;;;;;;5091723;28;20209;-73
2021/08/03 09:29:17;;;;;;;0.98;0.43;;;26.30;99.90;;;;;;5091655;28;20171;-74
2021/08/03 09:31:54;;;;;;;0.28;0.28;;;26.20;99.90;;;;;;5090015;28;20217;-73
2021/08/03 09:34:21;;;;;;;0.40;0.40;;;26.90;99.90;;;;;;5091179;28;20194;-73
2021/08/03 09:36:56;;;;;;;0.20;0.20;;;26.50;99.90;;;;;;5090768;28;20536;-73
2021/08/03 09:39:40;;;;;;;0.43;0.40;;;26.50;99.90;;;;;;5089618;28;20574;-74
2021/08/03 09:42:08;;;;;;;0.55;0.55;;;25.80;99.90;;;;;;5090791;28;20205;-74
2021/08/03 09:44:35;;;;;;;0.32;0.32;;;26.10;99.90;;;;;;5089347;28;20195;-73
2021/08/03 09:47:02;;;;;;;0.57;0.30;;;25.90;99.90;;;;;;5091062;28;20232;-74
2021/08/03 09:49:40;;;;;;;0.28;0.28;;;26.20;99.90;;;;;;5088370;28;20238;-74
2021/08/03 09:52:14;;;;;;;0.20;0.20;;;26.10;99.90;;;;;;5089470;28;20175;-73
2021/08/03 09:55:05;;;;;;;0.10;0.10;;;26.00;99.90;;;;;;5091304;28;20155;-80
2021/08/03 09:57:31;;;;;;;0.00;0.00;;;25.60;99.90;;;;;;5082195;28;20196;-74
2021/08/03 09:59:57;;;;;;;0.22;0.22;;;25.80;99.90;;;;;;5074967;28;20178;-74
2021/08/03 10:02:25;;;;;;;0.10;0.10;;;26.10;99.90;;;;;;5090873;28;20176;-75
2021/08/03 10:04:56;;;;;;;1.45;0.52;;;26.40;99.90;;;;;;5089476;28;20179;-75
2021/08/03 10:07:22;;;;;;;0.20;0.20;;;27.00;99.90;;;;;;5090935;28;20202;-74
2021/08/03 10:09:50;;;;;;;0.95;0.20;;;27.60;99.90;;;;;;5091089;28;20187;-74
2021/08/03 10:12:17;;;;;;;0.10;0.10;;;26.60;99.90;;;;;;5090395;28;20152;-74
2021/08/03 10:14:44;;;;;;;0.10;0.10;;;26.10;99.90;;;;;;5090835;28;20182;-75
2021/08/03 10:17:13;;;;;;;0.30;0.30;;;25.90;99.90;;;;;;5089723;28;20269;-75
2021/08/03 10:19:39;;;;;;;0.30;0.30;;;26.00;99.90;;;;;;5090901;28;20282;-75
2021/08/03 10:22:17;;;;;;;0.57;0.15;;;25.70;99.90;;;;;;5090712;28;20197;-75
2021/08/03 10:24:59;;;;;;;0.00;0.00;;;25.70;99.90;;;;;;5090583;28;20160;-73
2021/08/03 10:27:48;;;;;;;0.10;0.10;;;26.50;99.90;;;;;;5069493;28;20195;-75
2021/08/03 10:30:29;;;;;;;0.20;0.20;;;26.60;99.90;;;;;;5070390;28;20636;-74
2021/08/03 10:32:59;;;;;;;0.55;0.40;;;26.50;99.90;;;;;;5070513;28;20166;-74
2021/08/03 10:35:41;;;;;;;0.10;0.10;;;26.20;99.90;;;;;;5070496;28;20537;-74
2021/08/03 10:38:12;;;;;;;3.03;0.30;;;26.70;99.90;;;;;;5070440;28;20199;-75
2021/08/03 10:40:44;;;;;;;0.30;0.30;;;25.70;99.90;;;;;;5068994;28;20203;-74
2021/08/03 10:43:20;;;;;;;0.17;0.17;;;25.60;99.90;;;;;;5068975;28;20206;-75
2021/08/03 10:45:48;;;;;;;1.48;0.35;;;25.20;99.90;;;;;;5070160;28;20264;-75
2021/08/03 10:48:39;;;;;;;0.47;0.47;;;25.00;99.90;;;;;;5068518;28;20196;-75
2021/08/03 10:51:16;;;;;;;0.10;0.10;;;26.80;99.90;;;;;;5077783;28;20195;-75
2021/08/03 10:54:07;;;;;;;0.10;0.10;;;26.80;99.90;;;;;;5089686;28;20211;-74
2021/08/03 10:56:52;;;;;;;0.57;0.57;;;26.40;99.90;;;;;;5088638;28;20175;-74
2021/08/03 10:59:38;;;;;;;0.30;0.30;;;26.30;99.90;;;;;;5089925;28;20246;-74
2021/08/03 11:02:06;;;;;;;0.38;0.38;;;26.80;99.90;;;;;;5089880;28;20178;-73
2021/08/03 11:04:48;;;;;;;0.30;0.30;;;26.80;99.90;;;;;;5088526;28;20182;-74
2021/08/03 11:07:34;;;;;;;0.30;0.30;;;26.90;99.90;;;;;;5083676;28;20192;-73
2021/08/03 11:10:09;;;;;;;0.00;0.00;;;25.10;99.90;;;;;;5069615;28;20226;-73
2021/08/03 11:12:35;;;;;;;0.22;0.22;;;24.10;99.90;;;;;;5069570;28;20152;-73
2021/08/03 11:15:20;;;;;;;0.32;0.32;;;24.00;99.90;;;;;;5071219;28;20232;-73
2021/08/03 11:18:01;;;;;;;0.20;0.20;;;24.50;99.90;;;;;;5088005;28;20187;-73
2021/08/03 11:20:36;;;;;;;0.00;0.00;;;26.10;99.90;;;;;;5084890;28;20222;-74
2021/08/03 11:23:08;;;;;;;0.20;0.20;;;25.60;99.90;;;;;;5088852;28;20246;-73
2021/08/03 11:25:35;;;;;;;0.10;0.10;;;24.70;99.90;;;;;;5089542;28;20213;-73
2021/08/03 11:28:12;;;;;;;0.10;0.10;;;25.70;99.90;;;;;;5079136;28;20172;-73
2021/08/03 11:30:38;;;;;;;0.10;0.10;;;26.70;99.90;;;;;;5069525;28;20214;-74
2021/08/03 11:33:06;;;;;;;0.05;0.05;;;28.20;99.90;;;;;;5069233;28;20228;-73
2021/08/03 11:35:32;;;;;;;0.15;0.15;;;28.50;99.90;;;;;;5068985;28;20195;-73
2021/08/03 11:38:09;;;;;;;0.03;0.03;;;28.10;99.90;;;;;;5069370;28;20161;-73
2021/08/03 11:40:36;;;;;;;0.10;0.10;;;28.10;99.90;;;;;;5069348;28;20190;-74
2021/08/03 11:43:04;;;;;;;0.10;0.10;;;29.20;99.90;;;;;;5085758;28;20167;-73
2021/08/03 11:45:31;;;;;;;0.20;0.10;;;28.10;99.90;;;;;;5089184;28;20672;-74
2021/08/03 11:48:02;;;;;;;0.35;0.35;;;27.20;99.90;;;;;;5089242;28;20294;-75
2021/08/03 11:50:39;;;;;;;0.25;0.25;;;26.80;99.90;;;;;;5087612;28;20254;-75
2021/08/03 11:53:10;;;;;;;0.03;0.03;;;27.80;99.90;;;;;;5089126;28;20230;-74
2021/08/03 11:55:39;;;;;;;1.23;0.90;;;29.10;99.90;;;;;;5087691;28;20198;-74
2021/08/03 11:58:05;;;;;;;0.40;0.40;;;28.80;99.90;;;;;;5088900;28;20195;-74
2021/08/03 12:00:33;;;;;;;0.25;0.22;;;27.40;99.90;;;;;;5087840;28;20227;-74
2021/08/03 12:03:01;;;;;;;0.20;0.20;;;27.30;99.90;;;;;;5088839;28;20186;-74
2021/08/03 12:05:38;;;;;;;0.20;0.20;;;28.40;99.90;;;;;;5087748;28;20257;-74
2021/08/03 12:08:12;;;;;;;3.60;0.40;;;29.60;99.90;;;;;;5085765;28;20183;-74
2021/08/03 12:10:48;;;;;;;0.20;0.20;;;28.60;99.90;;;;;;5088898;28;20190;-74
2021/08/03 12:13:31;;;;;;;0.25;0.25;;;26.00;99.90;;;;;;5088903;28;20246;-74
2021/08/03 12:15:58;;;;;;;0.17;0.17;;;25.60;99.90;;;;;;5087743;28;20209;-74
2021/08/03 12:18:37;;;;;;;0.30;0.30;;;25.40;99.90;;;;;;5087613;28;20258;-74
2021/08/03 12:21:05;;;;;;;0.45;0.38;;;25.30;99.90;;;;;;5088929;28;20171;-74
2021/08/03 12:23:33;;;;;;;0.47;0.30;;;25.40;99.90;;;;;;5089066;28;20163;-76
2021/08/03 12:26:06;;;;;;;0.28;0.20;;;25.50;99.90;;;;;;5087467;28;20209;-75
2021/08/03 12:28:53;;;;;;;0.10;0.10;;;24.90;99.90;;;;;;5088917;28;20156;-73
2021/08/03 12:31:38;;;;;;;0.30;0.30;;;24.70;99.90;;;;;;5087251;28;20266;-74
2021/08/03 12:34:15;;;;;;;0.00;0.00;;;25.00;99.90;;;;;;5098638;28;20222;-74
2021/08/03 12:36:52;;;;;;;0.10;0.10;;;25.00;99.90;;;;;;5110281;28;20162;-74
2021/08/03 12:39:44;;;;;;;0.30;0.30;;;25.00;99.90;;;;;;5111544;28;20163;-74
2021/08/03 12:44:58;;;;;;;0.47;0.47;;;24.40;99.90;;;;;;5112945;28;20154;-74
2021/08/03 12:47:26;;;;;;;0.10;0.10;;;24.40;99.90;;;;;;5112903;28;20238;-74
2021/08/03 12:50:05;;;;;;;0.22;0.22;;;24.40;99.90;;;;;;5112591;28;20230;-75
2021/08/03 12:52:32;;;;;;;0.10;0.10;;;24.80;99.90;;;;;;5112815;28;20190;-74
2021/08/03 12:55:08;;;;;;;0.45;0.43;;;24.80;99.90;;;;;;5111389;28;20170;-74
2021/08/03 12:57:54;;;;;;;0.00;0.00;;;24.80;99.90;;;;;;5110402;28;20170;-74
2021/08/03 13:00:41;;;;;;;0.15;0.15;;;24.90;99.90;;;;;;5112848;28;20162;-74
2021/08/03 13:03:14;;;;;;;0.28;0.28;;;24.90;99.90;;;;;;5112532;28;20254;-74
2021/08/03 13:05:44;;;;;;;0.10;0.10;;;24.50;99.90;;;;;;5111200;28;20196;-74
2021/08/03 13:08:13;;;;;;;0.20;0.20;;;24.80;99.90;;;;;;5097783;28;20176;-74